Tuesday, January 16, 2018, 12:12 PM EST
Back to Local

KLEW, Auburn-lewiston

Location: Auburn, ME, United States Lat: 44.05
Local Time: 12:12 PM EST (17:12 GMT) Lon: -70.283
Time Zone: US/Eastern Elev: 288 ft

Show me the last for .
Show Coded

Time T Td Feel RH Dir Speed Gust Alt SLP Vis Weather Sky Remarks
2018-01-16 11:56 26 13 - 56 - Calm - 30.47 30.52 10 BKN028 None
2018-01-16 11:43 27 12 - 53 - Calm - 30.48 - 10 BKN028 None
2018-01-16 10:56 26 16 - 65 - Calm - 30.51 30.56 10 SCT080 None
2018-01-16 09:56 22 10 17 59 330° 3 - 30.52 30.57 10 CLR 6-hr Precip Total (10am): 0.00"
2018-01-16 08:56 17 9 12 69 360° 3 - 30.52 30.58 10 CLR None
2018-01-16 07:56 14 8 - 76 - Calm - 30.52 30.58 10 BKN110 1-hr Precip Total: Trace
2018-01-16 06:56 13 7 5 76 10° 5 - 30.52 30.57 9 -SN FEW028 1-hr Precip Total: Trace
6-hr Precip Total (7am): 0.00"
6-hr Min Temp (7am): 12.9°F
6-hr Max Temp (7am): 14.0°F
2018-01-16 06:52 12 7 4 78 30° 5 - 30.51 - 9 -SN SCT028 1-hr Precip Total: Trace
2018-01-16 05:56 13 8 3 80 10° 7 - 30.51 30.56 10 -SN OVC028 1-hr Precip Total: Trace
2018-01-16 04:56 14 8 5 76 20° 6 - 30.51 30.55 9 -SN OVC028 1-hr Precip Total: Trace
2018-01-16 03:56 14 8 1 76 10° 10 - 30.50 30.55 9 -SN OVC028 1-hr Precip Total: Trace
6-hr Precip Total (4am): 0.00"
2018-01-16 02:56 14 8 2 76 10° 9 - 30.51 30.56 9 -SN OVC028 1-hr Precip Total: Trace
2018-01-16 01:56 14 9 2 79 10° 9 - 30.52 30.58 9 -SN OVC028 1-hr Precip Total: Trace
2018-01-16 00:56 14 9 1 79 360° 10 - 30.52 30.58 9 -SN OVC028 1-hr Precip Total: Trace
6-hr Precip Total (1am): 0.00"
6-hr Min Temp (1am): 14.0°F
6-hr Max Temp (1am): 15.1°F
2018-01-15 23:56 14 10 2 83 10° 9 - 30.54 30.59 9 -SN OVC028 1-hr Precip Total: Trace
2018-01-15 23:29 14 10 0 85 360° 12 - 30.55 - 9 -SN OVC028 1-hr Precip Total: Trace
2018-01-15 22:56 14 10 2 83 360° 9 - 30.57 30.62 9 -SN OVC030 1-hr Precip Total: Trace
24-hr Min Temp (11pm): 1.0°F
24-hr Max Temp (11pm): 15.1°F
2018-01-15 22:25 14 10 0 85 360° 13 - 30.57 - 9 -SN OVC030 1-hr Precip Total: Trace
2018-01-15 22:13 14 10 1 85 360° 10 - 30.57 - 7 -SN BKN027 OVC035 1-hr Precip Total: Trace
2018-01-15 21:56 14 11 0 87 360° 13 - 30.58 30.63 4 -SN BR FEW025 OVC035 1-hr Precip Total: Trace
6-hr Precip Total (10pm): 0.00"
2018-01-15 21:18 16 10 3 78 10° 12 - 30.58 - 3 -SN BR SCT025 OVC034 1-hr Precip Total: Trace
2018-01-15 21:16 16 10 2 78 10° 13 - 30.58 - 2 -SN BR BKN025 OVC032 1-hr Precip Total: Trace
2018-01-15 20:56 15 11 3 83 10° 10 - 30.59 30.65 3 -SN BR BKN022 OVC032 1-hr Precip Total: Trace
2018-01-15 19:56 15 11 1 83 10° 14 - 30.60 30.65 5 -SN BR BKN022 OVC030 1-hr Precip Total: Trace
2018-01-15 19:45 16 10 1 78 10° 15 - 30.60 - 5 -SN BR FEW022 OVC028 1-hr Precip Total: Trace
2018-01-15 19:24 16 10 1 78 10° 14 - 30.61 - 6 -SN BR FEW022 OVC030 1-hr Precip Total: Trace
2018-01-15 18:56 15 10 0 79 20° 15 - 30.61 30.67 8 -SN OVC028 1-hr Precip Total: Trace
6-hr Precip Total (7pm): 0.00"
6-hr Min Temp (7pm): 12.0°F
6-hr Max Temp (7pm): 15.1°F
2018-01-15 17:56 15 9 0 76 20° 15 - 30.64 30.69 9 -SN OVC026 1-hr Precip Total: Trace
2018-01-15 16:56 15 6 0 66 10° 15 - 30.64 30.69 9 -SN OVC024 1-hr Precip Total: Trace
2018-01-15 15:56 15 2 1 55 30° 13 - 30.66 30.71 10 -SN OVC022 1-hr Precip Total: Trace
6-hr Precip Total (4pm): 0.00"
2018-01-15 14:56 14 -1 0 50 360° 12 - 30.65 30.70 10 OVC018 None
2018-01-15 14:29 14 -2 0 47 360° 12 - 30.65 - 10 BKN020 BKN024 None
2018-01-15 13:56 14 -3 0 46 20° 13 - 30.66 30.71 10 CLR None
2018-01-15 12:56 12 -4 -2 47 360° 12 - 30.69 30.74 10 CLR 6-hr Min Temp (1pm): 1.0°F
6-hr Max Temp (1pm): 12.0°F

Support USWX by starting your Amazon purchase here.